Аэропорт: Актобе. Актобе

ICAO: UATT

METAR:
2019/01/21 23:00
UATT 212300Z 17004MPS 9000 FEW003 M16/M17 Q1021 R13/820245 NOSIG RMK QBB100 QFE746/0994
METAR:
2019/01/21 18:18
TAF TAF UATT 211700Z 2118/2218 18008MPS 3000 BR BKN005 TXM01/2216Z TNM19/2118Z 
      TEMPO 2118/2124 0300 FZFG VV002 
      TEMPO 2200/2212 20013MPS 1000 SHSN BLSN BKN003 BKN015CB 
      TEMPO 2212/2218 2000 SHSNRA BR BKN003 BKN015CB